CYXPCYVM

Guest
Details From CYXP - Pangnirtung
To CYVM - QIKIQTARJUAQ
Flight Number -
Tags generated
Created
Modified
Stats Distance 95 nm / 176 km
Max Altitude 200 ft / 61 m
Waypoints 3
Social Downloads 0
Likes 0
Share VATSIM

Download

Looking for another format? Having issues loading an existing format? Contact us
Advertisement - Login to hide

Notes

Basic altitude profile: - Ascent Rate: 2500ft/min - Ascent Speed: 250kts - Cruise Altitude: 35000ft - Cruise Speed: 420kts - Descent Rate: 1500ft/min - Descent Speed: 250kts Options: - Use NATs: yes - Use PACOTS: yes - Use low airways: yes - Use high airways: yes

Route

CYXP YJI CYVM

ID Type Via Altitude Latitude Longitude Leg Dist Tot Dist Heading (true) Name
O CYXP APT - 0 ft / 0 m 66.14494˚ -65.71313˚ - 0 nm - Pangnirtung
YJI NDB - 200 ft / 61 m 67.56194˚ -64.01750˚ 94 nm 94 nm 24° / 26° BROUGHTON NDB
O CYVM APT - 0 ft / 0 m 67.54624˚ -64.03071˚ 0 nm 95 nm 198° / 198° QIKIQTARJUAQ

Altitude Profile

Advertisement - Login to hide

CYXP

Details ICAO CYXP (YXP)
Name Pangnirtung
Region Canada
Timezone Unknown (UTC+0.0)
Stats Elevation 73 ft / 22 m (AMSL)
Location 66.144940° -65.713130°
Runways 1
Magnetic Variation 30.338° W

METAR

CYXP 232200Z 26010KT 15SM FEW030 M02/M06 A2976 RMK CU1 CU TR -1.5/-8.0/0.0/4 SNOW COVER/MEDIUM PACK LAST STFD OBS/NEXT 241100Z SLP083

Decode

TAF

TAF CYXP 231842Z 2319/2322 26010KT P6SM FEW030 RMK NXT FCST WILL BE ISSUED AT 241245Z

Decode

Departure Runways

ID Width Length Bearing (true) Bearing (mag) Surface Threshold Offset Overrun Length
06T 98 ft / 30 m 2,919 ft / 890 m 60.95° 91.29° Gravel 0 ft / 0 m 0 ft / 0 m
24T 98 ft / 30 m 2,919 ft / 890 m 240.97° 271.31° Gravel 0 ft / 0 m 0 ft / 0 m

CYVM

Details ICAO CYVM (YVM)
Name QIKIQTARJUAQ
Region Canada
Timezone Unknown (UTC+0.0)
Stats Elevation 21 ft / 6 m (AMSL)
Location 67.546236° -64.030706°
Runways 1
Magnetic Variation 31.937° W

METAR

CYVM 232300Z AUTO 02010KT 9SM OVC042 M02/M05 A2978 RMK SLP085

Decode

TAF

TAF CYVM 231842Z 2319/2407 34010KT P6SM FEW012 BKN040 TEMPO 2319/2407 3SM -SHSN FEW010 BKN020 BECMG 2322/2324 VRB03KT RMK NXT FCST BY 240100Z

Decode

Destination Runways

ID Width Length Bearing (true) Bearing (mag) Surface Threshold Offset Overrun Length
03T 100 ft / 30 m 3,741 ft / 1,140 m 33.20° 65.14° Gravel 0 ft / 0 m 0 ft / 0 m
21T 100 ft / 30 m 3,741 ft / 1,140 m 213.21° 245.15° Gravel 0 ft / 0 m 0 ft / 0 m

Popular Alternatives